createdAt,value
2019-04-03T00:01:48.986Z,3.47
2019-04-03T00:04:18.290Z,3.80
2019-04-03T00:06:47.825Z,4.00
2019-04-03T00:09:16.727Z,3.60
2019-04-03T00:11:45.735Z,3.97
2019-04-03T00:14:14.689Z,3.58
2019-04-03T00:16:45.491Z,3.67
2019-04-03T00:19:15.858Z,3.90
2019-04-03T00:21:45.682Z,3.63
2019-04-03T00:24:15.071Z,3.87
2019-04-03T00:26:44.026Z,3.80
2019-04-03T00:29:13.026Z,4.10
2019-04-03T00:31:41.939Z,3.63
2019-04-03T00:34:10.921Z,3.67
2019-04-03T00:36:40.032Z,3.87
2019-04-03T00:39:08.846Z,3.57
2019-04-03T00:41:37.944Z,3.77
2019-04-03T00:44:07.043Z,3.50
2019-04-03T00:46:36.100Z,3.57
2019-04-03T00:49:05.127Z,3.90
2019-04-03T00:51:34.154Z,3.80
2019-04-03T00:54:03.389Z,3.70
2019-04-03T00:56:32.323Z,3.73
2019-04-03T00:59:01.166Z,4.10
2019-04-03T01:01:30.104Z,4.13
2019-04-03T01:03:59.166Z,3.90
2019-04-03T01:06:28.947Z,3.03
2019-04-03T01:08:59.408Z,4.20
2019-04-03T01:11:30.568Z,3.90
2019-04-03T03:08:23.027Z,3.12
2019-04-03T03:10:53.669Z,3.40
2019-04-03T03:13:23.663Z,3.20
2019-04-03T03:15:53.133Z,3.33
2019-04-03T03:18:22.627Z,3.95
2019-04-03T03:20:53.188Z,3.90
2019-04-03T03:23:23.371Z,3.72
2019-04-03T03:25:53.293Z,3.93
2019-04-03T03:28:22.608Z,3.52
2019-04-03T03:30:59.828Z,3.50
2019-04-03T03:33:32.055Z,3.62
2019-04-03T03:35:54.228Z,3.77
2019-04-03T03:38:28.128Z,3.67
2019-04-03T03:40:56.101Z,3.67
2019-04-03T03:43:26.203Z,3.87
2019-04-03T03:45:55.797Z,3.73
2019-04-03T03:48:24.913Z,4.40
2019-04-03T03:50:57.232Z,3.67
2019-04-03T03:53:25.705Z,3.90
2019-04-03T03:55:58.351Z,4.30
2019-04-03T03:58:26.124Z,3.70
2019-04-03T04:00:58.486Z,3.77
2019-04-03T04:03:26.317Z,3.62
2019-04-03T04:05:56.793Z,3.63
2019-04-03T04:08:25.780Z,3.60
2019-04-03T04:10:58.086Z,3.90
2019-04-03T04:13:26.687Z,3.33
2019-04-03T04:15:56.957Z,3.27
2019-04-03T04:18:26.008Z,3.05
2019-04-03T04:20:55.142Z,3.20
2019-04-03T04:23:25.225Z,3.05
2019-04-03T04:25:54.531Z,3.50
2019-04-03T04:28:23.446Z,3.08
2019-04-03T04:30:53.134Z,2.90
2019-04-03T04:33:21.998Z,3.10
2019-04-03T04:35:52.434Z,3.10
2019-04-03T04:38:22.070Z,2.92
2019-04-03T04:40:51.557Z,2.50
2019-04-03T04:43:20.600Z,2.65
2019-04-03T04:45:49.758Z,2.70
2019-04-03T04:48:20.706Z,2.80
2019-04-03T04:50:49.983Z,2.80
2019-04-03T04:53:19.308Z,2.77
2019-04-03T04:55:48.240Z,2.85
2019-04-03T04:58:17.278Z,2.65
2019-04-03T05:00:47.619Z,2.33
2019-04-03T05:03:16.799Z,2.93
2019-04-03T05:05:45.991Z,2.77
2019-04-03T05:08:14.967Z,2.70
2019-04-03T05:10:43.886Z,2.60
2019-04-03T05:13:13.875Z,2.22
2019-04-03T05:15:44.152Z,2.45
2019-04-03T05:18:13.351Z,2.27
2019-04-03T05:20:42.472Z,1.90
2019-04-03T05:23:11.844Z,2.00
2019-04-03T05:25:41.234Z,1.70
2019-04-03T05:28:10.500Z,2.10
2019-04-03T05:30:39.565Z,2.02
2019-04-03T05:33:10.618Z,1.60
2019-04-03T05:35:39.368Z,1.80
2019-04-03T05:38:08.255Z,1.52
2019-04-03T05:40:37.216Z,2.07
2019-04-03T05:43:06.276Z,2.08
2019-04-03T05:45:35.792Z,1.90
2019-04-03T05:48:05.172Z,1.90
2019-04-03T05:50:36.668Z,2.50
2019-04-03T05:53:06.050Z,2.17
2019-04-03T05:55:35.583Z,2.30
2019-04-03T05:58:04.675Z,2.02
2019-04-03T06:00:33.780Z,2.00
2019-04-03T06:03:03.096Z,2.40
2019-04-03T06:05:32.300Z,1.92
2019-04-03T06:08:01.690Z,2.33
2019-04-03T06:10:32.475Z,2.03
2019-04-03T06:13:01.537Z,2.15
2019-04-03T06:15:30.639Z,2.15
2019-04-03T06:17:59.508Z,3.12
2019-04-03T06:20:28.590Z,2.40
2019-04-03T06:22:57.843Z,2.47
2019-04-03T06:25:30.020Z,2.20
2019-04-03T06:27:57.431Z,2.05
2019-04-03T06:30:26.734Z,2.27
2019-04-03T06:32:55.942Z,2.30
2019-04-03T06:35:24.918Z,2.12
2019-04-03T06:37:53.863Z,2.10
2019-04-03T06:40:23.274Z,2.20
2019-04-03T06:42:52.378Z,2.10
2019-04-03T06:45:21.466Z,2.08
2019-04-03T06:47:50.500Z,2.02
2019-04-03T06:50:19.383Z,2.10
2019-04-03T06:52:48.702Z,2.27
2019-04-03T06:55:17.615Z,2.00
2019-04-03T06:57:46.614Z,2.35
2019-04-03T07:00:15.856Z,2.25
2019-04-03T07:02:44.724Z,2.20
2019-04-03T07:05:13.742Z,2.10
2019-04-03T07:07:42.707Z,1.82
2019-04-03T07:10:24.472Z,1.80
2019-04-03T07:12:42.827Z,2.00
2019-04-03T07:15:12.385Z,1.67
2019-04-03T07:17:41.412Z,2.02
2019-04-03T07:20:14.552Z,2.02
2019-04-03T07:22:42.061Z,1.80
2019-04-03T07:25:11.354Z,2.90
2019-04-03T07:27:42.263Z,2.35
2019-04-03T07:30:11.785Z,2.22
2019-04-03T07:32:40.684Z,2.25
2019-04-03T07:35:10.437Z,2.30
2019-04-03T07:37:39.923Z,2.50
2019-04-03T07:40:09.073Z,2.40
2019-04-03T07:42:38.111Z,2.30
2019-04-03T07:45:07.902Z,2.55
2019-04-03T07:47:36.939Z,2.70
2019-04-03T07:50:06.691Z,2.05
2019-04-03T07:52:35.953Z,2.60
2019-04-03T07:55:05.724Z,2.20
2019-04-03T07:57:34.580Z,2.60
2019-04-03T08:00:07.107Z,2.00
2019-04-03T08:02:35.276Z,2.35
2019-04-03T08:05:05.098Z,2.30
2019-04-03T08:07:34.266Z,2.65
2019-04-03T08:10:03.880Z,2.65
2019-04-03T08:12:34.675Z,2.52
2019-04-03T08:15:03.585Z,2.35
2019-04-03T08:17:32.509Z,2.55
2019-04-03T08:20:01.507Z,2.27
2019-04-03T08:22:32.774Z,2.50
2019-04-03T08:25:01.508Z,2.60
2019-04-03T08:27:30.514Z,2.57
2019-04-03T08:29:59.462Z,2.50
2019-04-03T08:32:28.799Z,3.17
2019-04-03T08:34:58.047Z,2.75
2019-04-03T08:37:30.915Z,2.43
2019-04-03T08:39:58.869Z,2.42
2019-04-03T08:42:29.109Z,2.50
2019-04-03T08:44:59.489Z,2.25
2019-04-03T08:47:28.715Z,2.10
2019-04-03T08:49:58.076Z,2.60
2019-04-03T08:52:28.449Z,2.00
2019-04-03T08:54:57.547Z,1.87
2019-04-03T08:57:26.763Z,2.35
2019-04-03T08:59:55.722Z,2.10
2019-04-03T09:02:24.642Z,1.63
2019-04-03T09:04:54.373Z,1.57
2019-04-03T09:07:24.952Z,1.98
2019-04-03T09:09:54.243Z,1.27
2019-04-03T09:12:23.179Z,1.80
2019-04-03T09:14:52.119Z,1.77
2019-04-03T09:17:21.141Z,1.97
2019-04-03T09:19:50.191Z,1.70
2019-04-03T09:22:20.822Z,2.40
2019-04-03T09:24:49.905Z,2.35
2019-04-03T09:27:19.168Z,2.37
2019-04-03T09:29:48.212Z,2.50
2019-04-03T09:32:17.365Z,2.43
2019-04-03T09:34:46.251Z,2.40
2019-04-03T09:37:17.584Z,2.53
2019-04-03T09:39:46.517Z,2.47
2019-04-03T09:42:15.718Z,2.72
2019-04-03T09:44:44.635Z,2.52
2019-04-03T09:47:13.592Z,2.65
2019-04-03T09:49:44.224Z,2.90
2019-04-03T09:52:14.295Z,2.70
2019-04-03T09:54:44.101Z,2.50
2019-04-03T09:57:13.297Z,2.40
2019-04-03T09:59:42.359Z,2.55
2019-04-03T10:02:11.410Z,2.20
2019-04-03T10:04:40.864Z,2.47
2019-04-03T10:07:10.477Z,2.87
2019-04-03T10:09:41.136Z,2.60
2019-04-03T10:12:10.476Z,2.40
2019-04-03T10:14:39.750Z,2.10
2019-04-03T10:17:09.438Z,2.35
2019-04-03T10:19:38.749Z,2.42
2019-04-03T10:22:07.662Z,2.00
2019-04-03T10:24:37.059Z,1.57
2019-04-03T10:27:06.064Z,1.60
2019-04-03T10:29:35.498Z,1.70
2019-04-03T10:32:04.879Z,1.50
2019-04-03T10:34:35.432Z,1.50
2019-04-03T10:37:04.968Z,1.23
2019-04-03T10:39:33.950Z,1.40
2019-04-03T10:42:02.920Z,1.47
2019-04-03T10:44:32.018Z,1.30
2019-04-03T10:47:01.594Z,1.03
2019-04-03T10:49:32.489Z,1.00
2019-04-03T10:52:01.150Z,1.00
2019-04-03T10:54:30.513Z,0.90
2019-04-03T10:57:02.432Z,0.90
2019-04-03T10:59:30.604Z,1.00
2019-04-03T11:01:59.796Z,0.78
2019-04-03T11:04:29.046Z,0.70
2019-04-03T11:06:59.080Z,0.97
2019-04-03T11:09:27.984Z,1.07
2019-04-03T11:11:59.819Z,0.80
2019-04-03T11:14:27.538Z,0.80
2019-04-03T11:16:56.460Z,1.00
2019-04-03T11:19:25.468Z,1.00
2019-04-03T11:21:56.040Z,0.80
2019-04-03T11:24:24.986Z,0.90
2019-04-03T11:26:54.797Z,0.83
2019-04-03T11:29:23.951Z,0.90
2019-04-03T11:31:52.906Z,0.97
2019-04-03T11:34:22.588Z,0.87
2019-04-03T11:36:52.005Z,0.70
2019-04-03T11:39:21.312Z,0.90
2019-04-03T11:41:50.660Z,1.10
2019-04-03T11:44:19.919Z,0.87
2019-04-03T11:46:48.990Z,0.93
2019-04-03T11:49:20.014Z,0.88
2019-04-03T11:51:48.643Z,0.83
2019-04-03T11:54:17.888Z,1.00
2019-04-03T11:56:46.872Z,0.80
2019-04-03T11:59:16.382Z,0.80
2019-04-03T12:01:45.508Z,1.00
2019-04-03T12:04:14.859Z,0.90
2019-04-03T12:06:43.754Z,0.53
2019-04-03T12:09:13.515Z,0.80
2019-04-03T12:11:42.493Z,0.80
2019-04-03T12:14:11.687Z,0.95
2019-04-03T12:16:40.622Z,0.90
2019-04-03T12:19:09.682Z,0.70
2019-04-03T12:21:38.712Z,0.80
2019-04-03T12:24:07.582Z,0.90
2019-04-03T12:26:36.699Z,0.70
2019-04-03T12:29:07.465Z,0.85
2019-04-03T12:31:36.219Z,0.70
2019-04-03T12:34:06.772Z,0.80
2019-04-03T12:36:36.311Z,0.60
2019-04-03T12:39:13.462Z,0.80
2019-04-03T12:41:43.210Z,0.80
2019-04-03T12:44:12.707Z,0.60
2019-04-03T12:46:41.836Z,0.70
2019-04-03T12:49:11.032Z,1.10
2019-04-03T12:51:40.043Z,0.83
2019-04-03T12:54:09.017Z,0.90
2019-04-03T12:56:38.216Z,1.10
2019-04-03T12:59:08.816Z,1.15
2019-04-03T13:01:38.102Z,1.10
2019-04-03T13:04:07.923Z,0.88
2019-04-03T13:06:36.947Z,1.10
2019-04-03T13:09:09.393Z,1.40
2019-04-03T13:11:38.638Z,1.30
2019-04-03T13:14:07.703Z,0.90
2019-04-03T13:16:37.443Z,0.93
2019-04-03T13:19:07.183Z,0.90
2019-04-03T13:21:37.962Z,1.40
2019-04-03T13:24:07.178Z,1.33
2019-04-03T13:26:36.223Z,1.13
2019-04-03T13:29:07.075Z,1.10
2019-04-03T13:31:36.266Z,0.83
2019-04-03T13:34:05.540Z,1.07
2019-04-03T13:36:34.583Z,0.87
2019-04-03T13:39:06.468Z,1.00
2019-04-03T13:41:35.813Z,1.20
2019-04-03T13:44:04.846Z,0.80
2019-04-03T13:46:35.736Z,1.10
2019-04-03T13:49:05.209Z,0.83
2019-04-03T13:51:34.542Z,1.00
2019-04-03T13:54:03.399Z,0.90
2019-04-03T13:56:32.492Z,0.90
2019-04-03T13:59:02.213Z,1.10
2019-04-03T14:01:31.601Z,1.10
2019-04-03T14:04:00.664Z,1.00
2019-04-03T14:06:29.819Z,1.10
2019-04-03T14:08:58.863Z,1.00
2019-04-03T14:11:28.487Z,1.10
2019-04-03T14:13:58.957Z,1.30
2019-04-03T14:16:28.141Z,0.90
2019-04-03T14:18:57.688Z,1.30
2019-04-03T14:21:27.803Z,1.03
2019-04-03T14:23:57.488Z,1.30
2019-04-03T14:26:26.499Z,1.10
2019-04-03T14:28:55.774Z,1.20
2019-04-03T14:31:34.712Z,1.30
2019-04-03T14:33:57.400Z,1.57
2019-04-03T14:36:27.411Z,1.50
2019-04-03T14:38:56.735Z,1.47
2019-04-03T14:41:25.695Z,1.33
2019-04-03T14:43:54.775Z,1.30
2019-04-03T14:46:23.843Z,1.33
2019-04-03T14:48:52.988Z,1.20
2019-04-03T14:51:22.375Z,1.33
2019-04-03T14:53:52.910Z,1.23
2019-04-03T14:56:22.732Z,0.90
2019-04-03T14:58:51.646Z,1.30
2019-04-03T15:01:21.303Z,1.27
2019-04-03T15:03:50.659Z,1.07
2019-04-03T15:06:19.861Z,1.40
2019-04-03T15:08:49.145Z,1.20
2019-04-03T15:11:20.836Z,1.20
2019-04-03T15:13:49.822Z,1.12
2019-04-03T15:16:19.763Z,0.90
2019-04-03T15:18:48.862Z,1.10
2019-04-03T15:21:18.170Z,1.73
2019-04-03T15:23:47.493Z,1.60
2019-04-03T15:26:17.244Z,1.47
2019-04-03T15:28:48.150Z,1.90
2019-04-03T15:31:17.205Z,3.60
2019-04-03T15:33:46.126Z,3.20
2019-04-03T15:36:15.140Z,1.30
2019-04-03T15:38:45.177Z,1.33
2019-04-03T15:41:14.989Z,2.60
2019-04-03T15:43:47.017Z,1.40
2019-04-03T15:46:15.205Z,1.47
2019-04-03T15:48:44.500Z,1.20
2019-04-03T15:51:13.580Z,1.27
2019-04-03T15:53:42.653Z,1.20
2019-04-03T15:56:13.043Z,1.30
2019-04-03T15:58:42.306Z,1.10
2019-04-03T16:01:11.579Z,1.10
2019-04-03T16:03:41.034Z,1.70
2019-04-03T16:06:10.084Z,1.23
2019-04-03T16:08:39.185Z,1.12
2019-04-03T16:11:08.399Z,0.93
2019-04-03T16:13:37.340Z,1.00
2019-04-03T16:16:07.271Z,1.03
2019-04-03T16:18:38.544Z,0.80
2019-04-03T16:21:07.490Z,2.30
2019-04-03T16:23:38.161Z,1.50
2019-04-03T16:26:07.918Z,1.02
2019-04-03T16:28:37.392Z,1.10
2019-04-03T16:31:06.420Z,1.00
2019-04-03T16:33:36.203Z,0.60
2019-04-03T16:36:06.885Z,1.10
2019-04-03T16:38:36.514Z,1.10
2019-04-03T16:41:05.881Z,1.00
2019-04-03T16:43:35.110Z,1.22
2019-04-03T16:46:04.192Z,1.30
2019-04-03T16:48:33.374Z,1.20
2019-04-03T16:51:03.012Z,1.45
2019-04-03T16:53:32.155Z,1.37
2019-04-03T16:56:01.134Z,1.73
2019-04-03T16:58:30.227Z,1.65
2019-04-03T17:00:59.351Z,1.40
2019-04-03T17:03:31.865Z,1.30
2019-04-03T17:05:58.927Z,1.03
2019-04-03T17:08:27.767Z,1.20
2019-04-03T17:10:56.958Z,1.20
2019-04-03T17:13:26.365Z,1.80
2019-04-03T17:15:55.534Z,1.40
2019-04-03T17:18:24.743Z,1.45
2019-04-03T17:20:56.183Z,1.80
2019-04-03T17:23:24.722Z,1.37
2019-04-03T17:25:53.570Z,1.63
2019-04-03T17:28:22.443Z,1.60
2019-04-03T17:30:51.788Z,1.43
2019-04-03T17:33:21.358Z,1.87
2019-04-03T17:35:50.837Z,1.77
2019-04-03T17:38:20.365Z,1.98
2019-04-03T17:40:49.516Z,2.40
2019-04-03T17:43:18.641Z,1.80
2019-04-03T17:45:47.668Z,2.70
2019-04-03T17:48:16.731Z,2.40
2019-04-03T17:50:46.059Z,2.50
2019-04-03T17:53:15.048Z,2.12
2019-04-03T17:55:45.360Z,2.20
2019-04-03T17:58:16.534Z,1.95
2019-04-03T18:00:45.322Z,1.70
2019-04-03T18:03:14.323Z,1.80
2019-04-03T18:05:43.912Z,1.90
2019-04-03T18:08:12.726Z,1.92
2019-04-03T18:10:42.594Z,1.87
2019-04-03T18:13:12.327Z,1.77
2019-04-03T18:15:41.268Z,2.13
2019-04-03T18:18:10.121Z,2.45
2019-04-03T18:20:38.968Z,2.30
2019-04-03T18:23:10.583Z,2.27
2019-04-03T18:25:39.438Z,2.37
2019-04-03T18:28:08.278Z,1.80
2019-04-03T18:30:37.174Z,2.30
2019-04-03T18:33:06.213Z,1.70
2019-04-03T18:35:35.190Z,1.93
2019-04-03T18:38:07.760Z,1.92
2019-04-03T18:40:35.590Z,1.80
2019-04-03T18:43:04.610Z,1.90
2019-04-03T18:45:33.474Z,2.00
2019-04-03T18:48:02.482Z,1.90
2019-04-03T18:50:34.865Z,1.80
2019-04-03T18:53:02.467Z,2.08
2019-04-03T18:55:31.375Z,2.55
2019-04-03T18:58:00.297Z,2.62
2019-04-03T19:00:30.735Z,2.00
2019-04-03T19:03:00.114Z,2.15
2019-04-03T19:05:29.223Z,2.27
2019-04-03T19:07:58.134Z,2.12
2019-04-03T19:10:27.147Z,2.47
2019-04-03T19:12:56.156Z,2.47
2019-04-03T19:15:25.158Z,2.40
2019-04-03T19:18:00.384Z,2.25
2019-04-03T19:20:25.670Z,2.47
2019-04-03T19:23:02.413Z,2.20
2019-04-03T19:25:25.325Z,2.37
2019-04-03T19:27:54.175Z,2.70
2019-04-03T19:30:23.239Z,2.67
2019-04-03T19:32:52.182Z,2.60
2019-04-03T19:35:21.212Z,2.75
2019-04-03T19:37:50.531Z,2.77
2019-04-03T19:40:19.602Z,3.12
2019-04-03T19:42:48.962Z,2.90
2019-04-03T19:45:20.634Z,3.20
2019-04-03T19:47:49.424Z,2.87
2019-04-03T19:50:18.418Z,3.42
2019-04-03T19:52:47.436Z,3.35
2019-04-03T19:55:19.230Z,3.52
2019-04-03T19:57:47.241Z,3.62
2019-04-03T20:00:16.347Z,3.22
2019-04-03T20:02:45.385Z,4.25
2019-04-03T20:05:14.772Z,3.52
2019-04-03T20:07:44.143Z,4.00
2019-04-03T20:10:13.867Z,3.58
2019-04-03T20:12:43.186Z,3.30
2019-04-03T20:15:13.108Z,3.95
2019-04-03T20:17:42.016Z,3.83
2019-04-03T20:20:12.488Z,4.00
2019-04-03T20:22:42.657Z,4.47
2019-04-03T20:25:14.534Z,4.35
2019-04-03T20:27:43.112Z,4.95
2019-04-03T20:30:12.331Z,4.55
2019-04-03T20:32:41.178Z,4.62
2019-04-03T20:35:10.431Z,4.28
2019-04-03T20:37:39.438Z,4.72
2019-04-03T20:40:09.032Z,5.12
2019-04-03T20:42:40.773Z,4.35
2019-04-03T20:45:09.168Z,4.70
2019-04-03T20:47:39.413Z,3.92
2019-04-03T20:50:08.535Z,4.50
2019-04-03T20:52:37.443Z,4.60
2019-04-03T20:55:07.707Z,4.00
2019-04-03T20:57:36.993Z,4.17
2019-04-03T21:00:10.924Z,4.50
2019-04-03T21:02:41.434Z,5.10
2019-04-03T21:05:10.455Z,4.50
2019-04-03T21:07:39.759Z,4.78
2019-04-03T21:10:09.039Z,4.83
2019-04-03T21:12:38.110Z,4.70
2019-04-03T21:15:09.204Z,4.65
2019-04-03T21:17:38.698Z,5.45
2019-04-03T21:20:07.666Z,5.37
2019-04-03T21:22:36.698Z,5.10
2019-04-03T21:25:06.081Z,4.92
2019-04-03T21:27:35.292Z,4.85
2019-04-03T21:30:04.623Z,5.00
2019-04-03T21:32:33.739Z,5.47
2019-04-03T21:35:04.152Z,5.58
2019-04-03T21:37:33.367Z,6.00
2019-04-03T21:40:04.840Z,5.70
2019-04-03T21:42:32.978Z,6.12
2019-04-03T21:45:02.687Z,5.92
2019-04-03T21:47:32.740Z,6.05
2019-04-03T21:50:03.689Z,6.15
2019-04-03T21:52:32.377Z,5.75
2019-04-03T21:55:04.555Z,5.30
2019-04-03T21:57:32.394Z,5.47
2019-04-03T22:00:01.325Z,6.22
2019-04-03T22:02:34.846Z,7.20
2019-04-03T22:05:07.050Z,6.20
2019-04-03T22:07:35.367Z,5.70
2019-04-03T22:10:04.894Z,5.58
2019-04-03T22:12:34.850Z,5.30
2019-04-03T22:15:05.482Z,5.37
2019-04-03T22:17:34.332Z,5.47
2019-04-03T22:20:03.424Z,5.25
2019-04-03T22:22:33.829Z,4.50
2019-04-03T22:25:03.027Z,5.35
2019-04-03T22:27:31.915Z,5.55
2019-04-03T22:30:01.194Z,5.33
2019-04-03T22:32:30.323Z,4.97
2019-04-03T22:35:01.071Z,5.05
2019-04-03T22:37:30.527Z,5.35
2019-04-03T22:39:59.451Z,4.50
2019-04-03T22:42:28.383Z,4.55
2019-04-03T22:44:57.310Z,4.87
2019-04-03T22:47:26.294Z,4.63
2019-04-03T22:49:55.174Z,5.00
2019-04-03T22:52:24.080Z,5.33
2019-04-03T22:54:52.922Z,5.45
2019-04-03T22:57:21.838Z,5.13
2019-04-03T22:59:50.895Z,5.25
2019-04-03T23:02:19.760Z,4.80
2019-04-03T23:04:48.687Z,5.05
2019-04-03T23:07:18.890Z,4.90
2019-04-03T23:09:48.728Z,5.15
2019-04-03T23:12:17.570Z,5.37
2019-04-03T23:14:46.509Z,5.12
2019-04-03T23:17:15.469Z,4.97
2019-04-03T23:19:44.269Z,5.33
2019-04-03T23:22:13.279Z,4.90
2019-04-03T23:24:42.615Z,5.70
2019-04-03T23:27:11.982Z,5.05
2019-04-03T23:29:40.799Z,4.30
2019-04-03T23:32:10.050Z,5.25
2019-04-03T23:34:39.340Z,5.28
2019-04-03T23:37:08.365Z,4.90
2019-04-03T23:39:37.486Z,4.62
2019-04-03T23:42:07.509Z,4.83
2019-04-03T23:44:36.558Z,4.92
2019-04-03T23:47:05.924Z,4.70
2019-04-03T23:49:34.882Z,5.17
2019-04-03T23:52:03.950Z,4.53
2019-04-03T23:54:33.928Z,4.70
2019-04-03T23:57:03.474Z,5.20
2019-04-03T23:59:32.421Z,5.53
